sensor_id;sensor_type;location;lat;lon;timestamp;pressure;altitude;pressure_sealevel;temperature;humidity
55470;BME280;41334;47.872;16.384;2023-04-16T15:03:33;99052.50;;;19.15;34.06
55470;BME280;41334;47.872;16.384;2023-04-16T15:05:35;99052.94;;;20.11;32.41
55470;BME280;41334;47.872;16.384;2023-04-16T15:07:37;99051.03;;;19.42;34.07
55470;BME280;41334;47.872;16.384;2023-04-16T15:11:17;99048.00;;;21.79;33.12
55470;BME280;41334;47.872;16.384;2023-04-16T15:13:19;99057.19;;;21.62;33.05
55470;BME280;41334;47.872;16.384;2023-04-16T15:15:21;99053.16;;;21.60;33.34
55470;BME280;41334;47.872;16.384;2023-04-16T15:17:23;99059.66;;;21.67;33.39
55470;BME280;41334;47.872;16.384;2023-04-16T15:19:24;99056.44;;;21.69;33.06
55470;BME280;41334;47.872;16.384;2023-04-16T15:21:26;99060.06;;;21.73;32.95
55470;BME280;41334;47.872;16.384;2023-04-16T15:23:28;99062.94;;;21.76;33.07
55470;BME280;41334;47.872;16.384;2023-04-16T15:30:50;99067.09;;;9.51;60.69
55470;BME280;41334;47.872;16.384;2023-04-16T15:32:52;99063.88;;;14.58;57.91
55470;BME280;41334;47.872;16.384;2023-04-16T15:34:55;99065.53;;;14.71;47.99
55470;BME280;41334;47.872;16.384;2023-04-16T15:36:57;99058.94;;;13.18;48.64
55470;BME280;41334;47.872;16.384;2023-04-16T15:38:59;99060.16;;;12.03;52.09
55470;BME280;41334;47.872;16.384;2023-04-16T15:41:00;99072.31;;;11.11;54.31
55470;BME280;41334;47.872;16.384;2023-04-16T15:43:02;99066.00;;;10.54;56.34
55470;BME280;41334;47.872;16.384;2023-04-16T15:45:06;99068.16;;;10.17;57.95
55470;BME280;41334;47.872;16.384;2023-04-16T15:47:08;99071.97;;;9.99;59.34
55470;BME280;41334;47.872;16.384;2023-04-16T15:49:10;99073.53;;;9.91;59.68
55470;BME280;41334;47.872;16.384;2023-04-16T15:55:00;99071.16;;;9.53;61.29
55470;BME280;41334;47.872;16.384;2023-04-16T16:00:05;99066.41;;;9.45;61.99
55470;BME280;41334;47.872;16.384;2023-04-16T16:05:15;99081.56;;;9.34;63.07
55470;BME280;41334;47.872;16.384;2023-04-16T16:10:17;99078.19;;;9.15;63.12
55470;BME280;41334;47.872;16.384;2023-04-16T16:15:20;99082.00;;;9.05;64.01
55470;BME280;41334;47.872;16.384;2023-04-16T16:20:23;99085.19;;;8.98;63.61
55470;BME280;41334;47.872;16.384;2023-04-16T16:25:25;99080.31;;;8.82;64.47
55470;BME280;41334;47.872;16.384;2023-04-16T16:30:27;99081.44;;;8.67;64.42
55470;BME280;41334;47.872;16.384;2023-04-16T16:35:30;99084.22;;;8.53;64.42
55470;BME280;41334;47.872;16.384;2023-04-16T16:40:31;99090.84;;;8.38;65.56
55470;BME280;41334;47.872;16.384;2023-04-16T16:45:33;99081.66;;;8.29;65.80
55470;BME280;41334;47.872;16.384;2023-04-16T16:50:35;99092.56;;;8.20;66.91
55470;BME280;41334;47.872;16.384;2023-04-16T16:55:37;99096.84;;;8.13;67.82
55470;BME280;41334;47.872;16.384;2023-04-16T17:00:38;99094.88;;;8.00;69.39
55470;BME280;41334;47.872;16.384;2023-04-16T17:05:41;99099.16;;;7.92;70.29
55470;BME280;41334;47.872;16.384;2023-04-16T17:10:42;99099.94;;;7.79;70.49
55470;BME280;41334;47.872;16.384;2023-04-16T17:15:45;99099.53;;;7.71;70.03
55470;BME280;41334;47.872;16.384;2023-04-16T17:20:47;99102.13;;;7.63;71.01
55470;BME280;41334;47.872;16.384;2023-04-16T17:25:49;99104.78;;;7.54;72.04
55470;BME280;41334;47.872;16.384;2023-04-16T17:30:52;99099.13;;;7.45;72.97
55470;BME280;41334;47.872;16.384;2023-04-16T17:35:54;99106.97;;;7.38;72.30
55470;BME280;41334;47.872;16.384;2023-04-16T17:40:56;99109.25;;;7.31;72.79
55470;BME280;41334;47.872;16.384;2023-04-16T17:45:58;99104.44;;;7.23;73.44
55470;BME280;41334;47.872;16.384;2023-04-16T17:51:10;99114.16;;;7.15;74.02
55470;BME280;41334;47.872;16.384;2023-04-16T17:56:12;99121.69;;;7.10;74.14
55470;BME280;41334;47.872;16.384;2023-04-16T18:01:14;99131.69;;;7.06;73.68
55470;BME280;41334;47.872;16.384;2023-04-16T18:06:16;99125.13;;;7.02;74.53
55470;BME280;41334;47.872;16.384;2023-04-16T18:11:18;99128.25;;;6.95;74.93
55470;BME280;41334;47.872;16.384;2023-04-16T18:16:20;99139.84;;;6.92;74.48
55470;BME280;41334;47.872;16.384;2023-04-16T18:21:23;99137.97;;;6.87;74.81
55470;BME280;41334;47.872;16.384;2023-04-16T18:26:25;99144.38;;;6.83;75.74
55470;BME280;41334;47.872;16.384;2023-04-16T18:31:30;99136.16;;;6.78;76.66
55470;BME280;41334;47.872;16.384;2023-04-16T18:36:32;99145.09;;;6.70;76.58
55470;BME280;41334;47.872;16.384;2023-04-16T18:41:37;99153.94;;;6.66;77.08
55470;BME280;41334;47.872;16.384;2023-04-16T18:46:43;99146.56;;;6.62;77.33
55470;BME280;41334;47.872;16.384;2023-04-16T18:51:46;99156.00;;;6.56;77.23
55470;BME280;41334;47.872;16.384;2023-04-16T18:56:54;99165.66;;;6.53;77.36
55470;BME280;41334;47.872;16.384;2023-04-16T19:01:59;99169.28;;;6.49;78.38
55470;BME280;41334;47.872;16.384;2023-04-16T19:07:01;99177.28;;;6.45;78.56
55470;BME280;41334;47.872;16.384;2023-04-16T19:12:03;99175.66;;;6.44;77.64
55470;BME280;41334;47.872;16.384;2023-04-16T19:17:05;99175.38;;;6.46;78.16
55470;BME280;41334;47.872;16.384;2023-04-16T19:22:06;99172.09;;;6.44;77.50
55470;BME280;41334;47.872;16.384;2023-04-16T19:27:08;99177.91;;;6.42;77.54
55470;BME280;41334;47.872;16.384;2023-04-16T19:32:11;99173.78;;;6.39;78.07
55470;BME280;41334;47.872;16.384;2023-04-16T19:37:14;99170.78;;;6.36;77.27
55470;BME280;41334;47.872;16.384;2023-04-16T19:42:16;99173.56;;;6.31;78.63
55470;BME280;41334;47.872;16.384;2023-04-16T19:47:18;99169.22;;;6.25;78.86
55470;BME280;41334;47.872;16.384;2023-04-16T19:52:20;99171.75;;;6.21;78.80
55470;BME280;41334;47.872;16.384;2023-04-16T19:57:22;99168.22;;;6.16;79.79
55470;BME280;41334;47.872;16.384;2023-04-16T20:02:24;99167.47;;;6.10;79.50
55470;BME280;41334;47.872;16.384;2023-04-16T20:10:52;99166.44;;;7.01;79.51
55470;BME280;41334;47.872;16.384;2023-04-16T20:16:46;99170.00;;;8.01;79.93
55470;BME280;41334;47.872;16.384;2023-04-16T20:21:48;99169.47;;;7.99;79.60
55470;BME280;41334;47.872;16.384;2023-04-16T20:26:50;99173.06;;;8.00;79.08
55470;BME280;41334;47.872;16.384;2023-04-16T20:31:52;99175.25;;;7.98;79.52
55470;BME280;41334;47.872;16.384;2023-04-16T20:36:53;99168.94;;;7.97;79.53
55470;BME280;41334;47.872;16.384;2023-04-16T20:41:55;99163.13;;;7.99;78.52
55470;BME280;41334;47.872;16.384;2023-04-16T20:47:00;99166.44;;;8.01;79.31
55470;BME280;41334;47.872;16.384;2023-04-16T20:52:03;99160.69;;;7.97;78.90
55470;BME280;41334;47.872;16.384;2023-04-16T20:57:06;99162.09;;;7.95;78.93
55470;BME280;41334;47.872;16.384;2023-04-16T21:02:08;99157.97;;;7.92;78.94
55470;BME280;41334;47.872;16.384;2023-04-16T21:07:10;99166.22;;;7.92;79.57
55470;BME280;41334;47.872;16.384;2023-04-16T21:12:12;99160.50;;;7.88;79.75
55470;BME280;41334;47.872;16.384;2023-04-16T21:17:14;99159.66;;;7.88;79.21
55470;BME280;41334;47.872;16.384;2023-04-16T21:22:16;99157.75;;;7.88;79.14
55470;BME280;41334;47.872;16.384;2023-04-16T21:27:17;99151.13;;;7.90;79.38
55470;BME280;41334;47.872;16.384;2023-04-16T21:32:19;99151.97;;;7.90;79.04
55470;BME280;41334;47.872;16.384;2023-04-16T21:37:21;99156.91;;;7.88;79.56
55470;BME280;41334;47.872;16.384;2023-04-16T21:42:23;99158.03;;;7.87;79.82
55470;BME280;41334;47.872;16.384;2023-04-16T21:47:25;99154.75;;;7.85;79.58
55470;BME280;41334;47.872;16.384;2023-04-16T21:52:27;99156.44;;;7.81;79.77
55470;BME280;41334;47.872;16.384;2023-04-16T21:57:29;99143.28;;;7.78;80.24
55470;BME280;41334;47.872;16.384;2023-04-16T22:02:31;99133.97;;;7.74;80.68
55470;BME280;41334;47.872;16.384;2023-04-16T22:07:35;99141.13;;;7.70;80.88
55470;BME280;41334;47.872;16.384;2023-04-16T22:12:37;99138.72;;;7.63;80.52
55470;BME280;41334;47.872;16.384;2023-04-16T22:17:41;99138.75;;;7.58;81.25
55470;BME280;41334;47.872;16.384;2023-04-16T22:22:43;99139.13;;;7.46;81.31
55470;BME280;41334;47.872;16.384;2023-04-16T22:27:45;99131.78;;;7.37;81.45
55470;BME280;41334;47.872;16.384;2023-04-16T22:32:47;99134.88;;;7.25;81.92
55470;BME280;41334;47.872;16.384;2023-04-16T22:37:49;99133.22;;;7.24;81.89
55470;BME280;41334;47.872;16.384;2023-04-16T22:42:51;99122.59;;;7.12;82.17
55470;BME280;41334;47.872;16.384;2023-04-16T22:47:53;99124.03;;;7.04;82.44
55470;BME280;41334;47.872;16.384;2023-04-16T22:52:55;99115.50;;;7.06;82.24
55470;BME280;41334;47.872;16.384;2023-04-16T22:57:57;99116.13;;;6.93;83.09
55470;BME280;41334;47.872;16.384;2023-04-16T23:03:00;99112.00;;;6.90;82.78
55470;BME280;41334;47.872;16.384;2023-04-16T23:08:02;99106.56;;;6.80;83.03
55470;BME280;41334;47.872;16.384;2023-04-16T23:13:04;99104.69;;;6.70;83.20
55470;BME280;41334;47.872;16.384;2023-04-16T23:18:06;99109.94;;;6.72;83.36
55470;BME280;41334;47.872;16.384;2023-04-16T23:23:08;99109.09;;;6.71;83.45
55470;BME280;41334;47.872;16.384;2023-04-16T23:28:09;99105.22;;;6.77;83.58
55470;BME280;41334;47.872;16.384;2023-04-16T23:33:11;99103.31;;;6.78;83.35
55470;BME280;41334;47.872;16.384;2023-04-16T23:38:13;99095.00;;;6.88;82.86
55470;BME280;41334;47.872;16.384;2023-04-16T23:43:15;99079.03;;;6.95;82.67
55470;BME280;41334;47.872;16.384;2023-04-16T23:48:17;99079.53;;;7.02;82.66
55470;BME280;41334;47.872;16.384;2023-04-16T23:53:19;99077.56;;;7.08;81.67
55470;BME280;41334;47.872;16.384;2023-04-16T23:58:20;99082.50;;;7.11;81.98
